DBDHM EDDL-EDDS
Flight info
| Callsign | DBDHM |
|---|---|
| Flight time | 0h 49m |
| Altitude | 29000 |
| Route | KUMIK7T/23L KUMIK L603 BOMBI N850 KRH T128 BADSO BADSO2A |
| Aircraft | C700/M-SBDGHM1RWXY/LB2 |
Departure
| Time | 2026-05-04 17:30 |
|---|---|
| Airport | Düsseldorf Airport (EDDL) |
Arrival
| Time | 2026-05-04 18:20 |
|---|---|
| Airport | Stuttgart Airport (EDDS) |
| Time | Latitude | Longitude | Altitude | Speed | Heading |
|---|---|---|---|---|---|
| 2026-05-04 17:11 | 51.28752 | 6.77735 | 128 ft | 0 kts | 233° |
| 2026-05-04 17:23 | 51.28774 | 6.77788 | 131 ft | 4 kts | 250° |
| 2026-05-04 17:23 | 51.28778 | 6.77828 | 131 ft | 4 kts | 290° |
| 2026-05-04 17:23 | 51.28772 | 6.77845 | 131 ft | 0 kts | 323° |
| 2026-05-04 17:25 | 51.28773 | 6.77843 | 131 ft | 1 kts | 323° |
| 2026-05-04 17:26 | 51.28812 | 6.77799 | 128 ft | 6 kts | 324° |
| 2026-05-04 17:26 | 51.28943 | 6.77640 | 131 ft | 0 kts | 323° |
| 2026-05-04 17:29 | 51.28975 | 6.77601 | 125 ft | 11 kts | 323° |
| 2026-05-04 17:29 | 51.28399 | 6.76153 | 219 ft | 158 kts | 228° |
| 2026-05-04 17:30 | 51.26037 | 6.70998 | 4065 ft | 215 kts | 230° |
| 2026-05-04 17:31 | 51.23997 | 6.66802 | 6688 ft | 254 kts | 225° |
| 2026-05-04 17:31 | 51.18767 | 6.63831 | 9956 ft | 318 kts | 173° |
| 2026-05-04 17:32 | 51.14875 | 6.67047 | 9967 ft | 317 kts | 135° |
| 2026-05-04 17:33 | 51.13302 | 6.77038 | 9972 ft | 328 kts | 89° |
| 2026-05-04 17:33 | 51.13469 | 6.80670 | 9979 ft | 329 kts | 89° |
| 2026-05-04 17:34 | 51.13875 | 6.91518 | 10797 ft | 316 kts | 89° |
| 2026-05-04 17:34 | 51.14006 | 6.95009 | 12532 ft | 318 kts | 89° |
| 2026-05-04 17:35 | 51.14398 | 7.05967 | 16258 ft | 343 kts | 89° |
| 2026-05-04 17:35 | 51.14672 | 7.13733 | 18497 ft | 358 kts | 89° |
| 2026-05-04 17:35 | 51.14808 | 7.17709 | 19552 ft | 366 kts | 90° |
| 2026-05-04 17:36 | 51.14950 | 7.21906 | 19990 ft | 393 kts | 89° |
| 2026-05-04 17:36 | 51.15100 | 7.26325 | 19994 ft | 396 kts | 89° |
| 2026-05-04 17:36 | 51.15251 | 7.30614 | 19991 ft | 389 kts | 89° |
| 2026-05-04 17:36 | 51.15386 | 7.34869 | 21009 ft | 376 kts | 91° |
| 2026-05-04 17:37 | 51.14973 | 7.38964 | 22063 ft | 377 kts | 114° |
| 2026-05-04 17:37 | 51.13603 | 7.42500 | 23082 ft | 377 kts | 132° |
| 2026-05-04 17:37 | 51.11843 | 7.45636 | 23926 ft | 386 kts | 136° |
| 2026-05-04 17:37 | 51.09947 | 7.48883 | 23995 ft | 410 kts | 135° |
| 2026-05-04 17:38 | 51.08172 | 7.52449 | 23994 ft | 410 kts | 129° |
| 2026-05-04 17:38 | 51.06636 | 7.56160 | 23991 ft | 405 kts | 126° |
| 2026-05-04 17:38 | 51.05113 | 7.59945 | 23988 ft | 402 kts | 128° |
| 2026-05-04 17:38 | 51.03482 | 7.63561 | 23991 ft | 406 kts | 130° |
| 2026-05-04 17:39 | 51.00135 | 7.70817 | 24310 ft | 402 kts | 128° |
| 2026-05-04 17:39 | 50.98561 | 7.74444 | 25449 ft | 396 kts | 129° |
| 2026-05-04 17:39 | 50.96948 | 7.78024 | 26101 ft | 402 kts | 131° |
| 2026-05-04 17:40 | 50.95286 | 7.81643 | 26855 ft | 405 kts | 131° |
| 2026-05-04 17:40 | 50.93649 | 7.85264 | 27563 ft | 410 kts | 130° |
| 2026-05-04 17:40 | 50.91987 | 7.88977 | 28258 ft | 414 kts | 131° |
| 2026-05-04 17:40 | 50.90295 | 7.92727 | 28931 ft | 419 kts | 131° |
| 2026-05-04 17:41 | 50.88553 | 7.96544 | 28989 ft | 437 kts | 131° |
| 2026-05-04 17:41 | 50.86759 | 8.00487 | 28993 ft | 442 kts | 131° |
| 2026-05-04 17:41 | 50.83237 | 8.08334 | 28985 ft | 440 kts | 129° |
| 2026-05-04 17:42 | 50.79851 | 8.16384 | 28983 ft | 438 kts | 129° |
| 2026-05-04 17:42 | 50.78162 | 8.20382 | 29395 ft | 432 kts | 129° |
| 2026-05-04 17:42 | 50.76501 | 8.24315 | 30475 ft | 430 kts | 129° |
| 2026-05-04 17:43 | 50.74822 | 8.28267 | 31061 ft | 435 kts | 129° |
| 2026-05-04 17:43 | 50.73148 | 8.32212 | 31733 ft | 439 kts | 129° |
| 2026-05-04 17:43 | 50.71401 | 8.36190 | 32332 ft | 440 kts | 133° |
| 2026-05-04 17:43 | 50.69337 | 8.39728 | 32932 ft | 437 kts | 142° |
| 2026-05-04 17:44 | 50.64261 | 8.45258 | 32982 ft | 451 kts | 157° |
| 2026-05-04 17:44 | 50.58708 | 8.49925 | 32984 ft | 448 kts | 156° |
| 2026-05-04 17:45 | 50.53282 | 8.54513 | 32975 ft | 442 kts | 156° |
| 2026-05-04 17:45 | 50.47825 | 8.59085 | 32970 ft | 444 kts | 156° |
| 2026-05-04 17:46 | 50.45114 | 8.61299 | 32768 ft | 447 kts | 160° |
| 2026-05-04 17:46 | 50.42178 | 8.62992 | 32188 ft | 450 kts | 167° |
| 2026-05-04 17:46 | 50.39177 | 8.64384 | 31594 ft | 448 kts | 168° |
| 2026-05-04 17:46 | 50.36199 | 8.65778 | 31004 ft | 445 kts | 167° |
| 2026-05-04 17:47 | 50.33245 | 8.67175 | 30414 ft | 442 kts | 167° |
| 2026-05-04 17:47 | 50.30296 | 8.68561 | 29800 ft | 441 kts | 167° |
| 2026-05-04 17:47 | 50.28339 | 8.69473 | 29400 ft | 439 kts | 167° |
| 2026-05-04 17:47 | 50.24472 | 8.71277 | 28633 ft | 435 kts | 167° |
| 2026-05-04 17:48 | 50.22518 | 8.72191 | 28246 ft | 432 kts | 167° |
| 2026-05-04 17:48 | 50.19639 | 8.73537 | 27675 ft | 430 kts | 167° |
| 2026-05-04 17:48 | 50.16811 | 8.74852 | 27115 ft | 428 kts | 167° |
| 2026-05-04 17:48 | 50.13960 | 8.76177 | 26550 ft | 426 kts | 167° |
| 2026-05-04 17:49 | 50.11128 | 8.77494 | 25991 ft | 424 kts | 167° |
| 2026-05-04 17:49 | 50.08275 | 8.78592 | 25420 ft | 418 kts | 173° |
| 2026-05-04 17:49 | 50.05427 | 8.79008 | 24981 ft | 408 kts | 181° |
| 2026-05-04 17:49 | 50.02684 | 8.78815 | 24969 ft | 383 kts | 188° |
| 2026-05-04 17:50 | 50.00105 | 8.78098 | 24958 ft | 369 kts | 194° |
| 2026-05-04 17:50 | 49.97584 | 8.77209 | 24959 ft | 376 kts | 194° |
| 2026-05-04 17:50 | 49.94997 | 8.76324 | 24966 ft | 384 kts | 194° |
| 2026-05-04 17:50 | 49.92371 | 8.75425 | 24972 ft | 385 kts | 194° |
| 2026-05-04 17:51 | 49.89800 | 8.74535 | 24984 ft | 383 kts | 194° |
| 2026-05-04 17:51 | 49.87204 | 8.73635 | 24983 ft | 381 kts | 194° |
| 2026-05-04 17:51 | 49.84621 | 8.72745 | 24978 ft | 380 kts | 194° |
| 2026-05-04 17:51 | 49.82032 | 8.71855 | 24977 ft | 380 kts | 194° |
| 2026-05-04 17:52 | 49.79445 | 8.70965 | 24978 ft | 382 kts | 194° |
| 2026-05-04 17:52 | 49.76835 | 8.70068 | 24797 ft | 392 kts | 194° |
| 2026-05-04 17:52 | 49.74087 | 8.69143 | 24329 ft | 411 kts | 192° |
| 2026-05-04 17:52 | 49.71225 | 8.68660 | 23864 ft | 411 kts | 186° |
| 2026-05-04 17:53 | 49.68419 | 8.68308 | 23376 ft | 407 kts | 186° |
| 2026-05-04 17:53 | 49.65597 | 8.67913 | 22770 ft | 403 kts | 187° |
| 2026-05-04 17:53 | 49.62825 | 8.67528 | 22178 ft | 395 kts | 186° |
| 2026-05-04 17:53 | 49.60154 | 8.67177 | 21598 ft | 376 kts | 186° |
| 2026-05-04 17:54 | 49.57561 | 8.66837 | 21025 ft | 372 kts | 186° |
| 2026-05-04 17:54 | 49.54963 | 8.66485 | 20471 ft | 379 kts | 186° |
| 2026-05-04 17:54 | 49.52310 | 8.66127 | 19938 ft | 385 kts | 186° |
| 2026-05-04 17:54 | 49.49669 | 8.65777 | 19416 ft | 385 kts | 186° |
| 2026-05-04 17:55 | 49.47011 | 8.65425 | 18893 ft | 381 kts | 186° |
| 2026-05-04 17:55 | 49.44372 | 8.65074 | 18377 ft | 377 kts | 186° |
| 2026-05-04 17:55 | 49.41768 | 8.64726 | 17799 ft | 374 kts | 186° |
| 2026-05-04 17:55 | 49.39183 | 8.64382 | 17223 ft | 371 kts | 186° |
| 2026-05-04 17:56 | 49.36616 | 8.64043 | 16647 ft | 369 kts | 186° |
| 2026-05-04 17:56 | 49.34061 | 8.63704 | 16090 ft | 366 kts | 186° |
| 2026-05-04 17:56 | 49.31533 | 8.63364 | 15542 ft | 364 kts | 186° |
| 2026-05-04 17:56 | 49.29041 | 8.62969 | 15344 ft | 353 kts | 187° |
| 2026-05-04 17:57 | 49.26598 | 8.62563 | 15320 ft | 355 kts | 187° |
| 2026-05-04 17:57 | 49.24141 | 8.62180 | 15302 ft | 362 kts | 187° |
| 2026-05-04 17:57 | 49.21618 | 8.61802 | 15286 ft | 363 kts | 187° |
| 2026-05-04 17:57 | 49.19155 | 8.61425 | 15017 ft | 346 kts | 187° |
| 2026-05-04 17:58 | 49.16827 | 8.61063 | 14979 ft | 327 kts | 187° |
| 2026-05-04 17:58 | 49.14601 | 8.60716 | 14962 ft | 327 kts | 187° |
| 2026-05-04 17:58 | 49.12236 | 8.60355 | 14879 ft | 353 kts | 186° |
| 2026-05-04 17:58 | 49.09744 | 8.59986 | 14708 ft | 363 kts | 186° |
| 2026-05-04 17:59 | 49.07252 | 8.59617 | 14471 ft | 362 kts | 186° |
| 2026-05-04 17:59 | 49.04751 | 8.59242 | 14207 ft | 360 kts | 186° |
| 2026-05-04 17:59 | 48.99772 | 8.58513 | 13653 ft | 356 kts | 185° |
| 2026-05-04 18:00 | 48.97293 | 8.58654 | 13333 ft | 356 kts | 176° |
| 2026-05-04 18:00 | 48.94859 | 8.58970 | 13041 ft | 354 kts | 176° |
| 2026-05-04 18:00 | 48.92390 | 8.59248 | 12755 ft | 352 kts | 177° |
| 2026-05-04 18:00 | 48.89951 | 8.59525 | 12462 ft | 350 kts | 176° |
| 2026-05-04 18:01 | 48.87556 | 8.59813 | 12186 ft | 348 kts | 176° |
| 2026-05-04 18:01 | 48.85148 | 8.60103 | 11906 ft | 345 kts | 176° |
| 2026-05-04 18:01 | 48.82754 | 8.60433 | 11623 ft | 344 kts | 173° |
| 2026-05-04 18:02 | 48.78191 | 8.62595 | 11069 ft | 342 kts | 161° |
| 2026-05-04 18:02 | 48.76056 | 8.64132 | 10805 ft | 343 kts | 151° |
| 2026-05-04 18:02 | 48.74141 | 8.66295 | 10534 ft | 342 kts | 140° |
| 2026-05-04 18:02 | 48.72546 | 8.68950 | 10270 ft | 340 kts | 130° |
| 2026-05-04 18:03 | 48.71316 | 8.72005 | 10013 ft | 337 kts | 118° |
| 2026-05-04 18:03 | 48.70514 | 8.75248 | 9978 ft | 321 kts | 109° |
| 2026-05-04 18:03 | 48.70123 | 8.78472 | 9979 ft | 314 kts | 99° |
| 2026-05-04 18:03 | 48.70108 | 8.81815 | 9977 ft | 321 kts | 89° |
| 2026-05-04 18:04 | 48.70501 | 8.85198 | 9974 ft | 329 kts | 78° |
| 2026-05-04 18:04 | 48.71155 | 8.88544 | 9976 ft | 331 kts | 76° |
| 2026-05-04 18:04 | 48.72437 | 8.95242 | 9970 ft | 330 kts | 77° |
| 2026-05-04 18:05 | 48.73068 | 8.98539 | 9974 ft | 329 kts | 77° |
| 2026-05-04 18:05 | 48.73707 | 9.01871 | 9966 ft | 329 kts | 76° |
| 2026-05-04 18:05 | 48.74329 | 9.05115 | 9950 ft | 306 kts | 76° |
| 2026-05-04 18:05 | 48.74903 | 9.08117 | 9601 ft | 292 kts | 77° |
| 2026-05-04 18:06 | 48.76023 | 9.14036 | 8358 ft | 289 kts | 76° |
| 2026-05-04 18:06 | 48.76571 | 9.16922 | 7785 ft | 287 kts | 76° |
| 2026-05-04 18:06 | 48.77119 | 9.19814 | 7221 ft | 285 kts | 76° |
| 2026-05-04 18:07 | 48.77660 | 9.22665 | 6972 ft | 272 kts | 76° |
| 2026-05-04 18:07 | 48.78173 | 9.25379 | 6929 ft | 265 kts | 76° |
| 2026-05-04 18:07 | 48.78689 | 9.28134 | 6059 ft | 279 kts | 76° |
| 2026-05-04 18:07 | 48.79220 | 9.30953 | 5573 ft | 273 kts | 75° |
| 2026-05-04 18:08 | 48.79738 | 9.33699 | 5086 ft | 269 kts | 75° |
| 2026-05-04 18:08 | 48.80238 | 9.36370 | 4617 ft | 264 kts | 75° |
| 2026-05-04 18:08 | 48.80739 | 9.39045 | 4096 ft | 262 kts | 73° |
| 2026-05-04 18:08 | 48.81223 | 9.41634 | 4013 ft | 247 kts | 73° |
| 2026-05-04 18:09 | 48.82178 | 9.46753 | 4010 ft | 261 kts | 73° |
| 2026-05-04 18:09 | 48.83175 | 9.52118 | 4021 ft | 264 kts | 73° |
| 2026-05-04 18:10 | 48.83669 | 9.54785 | 4020 ft | 264 kts | 73° |
| 2026-05-04 18:10 | 48.84166 | 9.57468 | 4007 ft | 263 kts | 73° |
| 2026-05-04 18:10 | 48.84659 | 9.60130 | 4013 ft | 260 kts | 73° |
| 2026-05-04 18:10 | 48.85147 | 9.62781 | 4012 ft | 260 kts | 74° |
| 2026-05-04 18:11 | 48.85632 | 9.65408 | 4011 ft | 262 kts | 73° |
| 2026-05-04 18:11 | 48.86123 | 9.68081 | 4012 ft | 262 kts | 73° |
| 2026-05-04 18:11 | 48.86184 | 9.70834 | 3992 ft | 266 kts | 101° |
| 2026-05-04 18:11 | 48.85291 | 9.73295 | 3997 ft | 270 kts | 132° |
| 2026-05-04 18:12 | 48.83680 | 9.74761 | 3991 ft | 274 kts | 163° |
| 2026-05-04 18:12 | 48.81804 | 9.74830 | 3995 ft | 275 kts | 193° |
| 2026-05-04 18:12 | 48.80107 | 9.73523 | 3999 ft | 271 kts | 217° |
| 2026-05-04 18:12 | 48.78710 | 9.71732 | 3998 ft | 253 kts | 223° |
| 2026-05-04 18:13 | 48.77459 | 9.69998 | 3994 ft | 233 kts | 223° |
| 2026-05-04 18:13 | 48.76316 | 9.68392 | 3991 ft | 219 kts | 224° |
| 2026-05-04 18:13 | 48.74427 | 9.64916 | 3995 ft | 215 kts | 259° |
| 2026-05-04 18:14 | 48.74558 | 9.62695 | 4004 ft | 212 kts | 289° |
| 2026-05-04 18:14 | 48.75074 | 9.60595 | 4016 ft | 214 kts | 293° |
| 2026-05-04 18:14 | 48.75589 | 9.58478 | 4004 ft | 211 kts | 285° |
| 2026-05-04 18:15 | 48.75024 | 9.54201 | 4015 ft | 216 kts | 255° |
| 2026-05-04 18:15 | 48.74203 | 9.49785 | 4042 ft | 213 kts | 254° |
| 2026-05-04 18:15 | 48.73807 | 9.47704 | 4012 ft | 196 kts | 255° |
| 2026-05-04 18:16 | 48.73453 | 9.45806 | 3995 ft | 180 kts | 255° |
| 2026-05-04 18:16 | 48.73107 | 9.44006 | 3818 ft | 180 kts | 257° |
| 2026-05-04 18:16 | 48.72770 | 9.42184 | 3588 ft | 178 kts | 257° |
| 2026-05-04 18:17 | 48.72101 | 9.38662 | 3134 ft | 169 kts | 257° |
| 2026-05-04 18:17 | 48.71779 | 9.36958 | 2903 ft | 168 kts | 257° |
| 2026-05-04 18:17 | 48.71130 | 9.33531 | 2454 ft | 169 kts | 258° |
| 2026-05-04 18:18 | 48.70810 | 9.31837 | 2265 ft | 157 kts | 257° |
| 2026-05-04 18:18 | 48.70526 | 9.30334 | 2020 ft | 144 kts | 258° |
| 2026-05-04 18:18 | 48.70255 | 9.28895 | 1814 ft | 140 kts | 257° |
| 2026-05-04 18:18 | 48.69982 | 9.27452 | 1629 ft | 142 kts | 257° |
| 2026-05-04 18:19 | 48.69453 | 9.24676 | 1334 ft | 134 kts | 257° |
| 2026-05-04 18:19 | 48.69213 | 9.23391 | 1283 ft | 113 kts | 258° |
| 2026-05-04 18:19 | 48.69040 | 9.22459 | 1280 ft | 71 kts | 254° |
| 2026-05-04 18:20 | 48.68948 | 9.21943 | 1280 ft | 27 kts | 256° |
| 2026-05-04 18:20 | 48.68957 | 9.21666 | 1280 ft | 26 kts | 283° |
| 2026-05-04 18:20 | 48.68984 | 9.21501 | 1280 ft | 2 kts | 284° |
| 2026-05-04 18:20 | 48.68989 | 9.21473 | 1280 ft | 0 kts | 295° |
| 2026-05-04 18:21 | 48.69003 | 9.21446 | 1280 ft | 8 kts | 325° |
| 2026-05-04 18:21 | 48.69070 | 9.21412 | 1280 ft | 12 kts | 326° |
| 2026-05-04 18:22 | 48.69112 | 9.21302 | 1280 ft | 14 kts | 342° |
| 2026-05-04 18:22 | 48.69153 | 9.21274 | 1280 ft | 5 kts | 288° |
| 2026-05-04 18:22 | 48.69150 | 9.21208 | 1280 ft | 1 kts | 308° |
| 2026-05-04 18:22 | 48.69159 | 9.21203 | 1280 ft | 1 kts | 353° |
| 2026-05-04 18:23 | 48.69164 | 9.21205 | 1280 ft | 1 kts | 14° |
| 2026-05-04 18:23 | 48.69176 | 9.21210 | 1280 ft | 2 kts | 13° |
| 2026-05-04 18:23 | 48.69177 | 9.21210 | 1280 ft | 0 kts | 12° |